Terminal Aerodrome Forecast
Issued by NWS

Home | Current Version | Previous Version | Text Only | Print | Product List | Glossary Off
Versions: 1 2 3 4 5 6 7 8 9 10 11 12 13 14 15 16 17 18 19 20 21 22 23 24 25 26 27 28 29 30 31 32

000
FTUS43 KLOT 302020 AAB
TAFORD
TAF AMD
KORD 302020Z 3020/3124 24004KT P6SM BKN030
     FM302130 08007KT P6SM SCT025
     FM310300 VRB03KT 4SM BR SKC
      TEMPO 3110/3113 00000KT 1 1/2SM BR
     FM311300 20004KT P6SM SKC=

USA.gov is the U.S. government's official web portal to all federal, state and local government web resources and services.